createdAt,value
2023-07-15T00:01:37.940Z,24.60
2023-07-15T00:04:12.301Z,24.60
2023-07-15T00:06:39.422Z,24.60
2023-07-15T00:09:06.184Z,24.50
2023-07-15T00:11:44.042Z,24.50
2023-07-15T00:14:23.130Z,24.50
2023-07-15T00:16:52.857Z,24.60
2023-07-15T00:19:20.155Z,24.50
2023-07-15T00:21:48.108Z,24.40
2023-07-15T00:24:15.516Z,24.40
2023-07-15T00:26:42.408Z,24.40
2023-07-15T00:29:09.253Z,24.40
2023-07-15T00:31:36.779Z,24.40
2023-07-15T00:34:04.030Z,24.40
2023-07-15T00:36:32.442Z,24.40
2023-07-15T00:39:00.858Z,24.50
2023-07-15T00:41:33.839Z,24.40
2023-07-15T00:44:06.212Z,24.40
2023-07-15T00:46:55.129Z,24.40
2023-07-15T00:49:27.754Z,24.40
2023-07-15T00:52:05.920Z,24.40
2023-07-15T00:54:38.213Z,24.40
2023-07-15T00:57:07.266Z,24.30
2023-07-15T00:59:33.953Z,24.30
2023-07-15T01:02:01.521Z,24.30
2023-07-15T01:04:28.293Z,24.20
2023-07-15T01:06:55.444Z,24.30
2023-07-15T01:09:26.221Z,24.30
2023-07-15T01:11:53.191Z,24.30
2023-07-15T01:14:20.838Z,24.30
2023-07-15T01:16:49.059Z,24.30
2023-07-15T01:19:20.008Z,24.40
2023-07-15T01:21:50.994Z,24.30
2023-07-15T01:24:18.773Z,24.30
2023-07-15T01:26:45.796Z,24.30
2023-07-15T01:29:14.601Z,24.40
2023-07-15T01:31:44.830Z,24.40
2023-07-15T01:34:13.798Z,24.40
2023-07-15T01:36:40.830Z,24.40
2023-07-15T01:39:10.560Z,24.50
2023-07-15T01:41:37.416Z,24.50
2023-07-15T01:44:05.626Z,24.40
2023-07-15T01:46:32.710Z,24.40
2023-07-15T01:49:03.637Z,24.40
2023-07-15T01:51:31.152Z,24.40
2023-07-15T01:54:00.144Z,24.40
2023-07-15T01:56:27.147Z,24.40
2023-07-15T01:58:54.954Z,24.40
2023-07-15T02:01:21.834Z,24.40
2023-07-15T02:03:48.787Z,24.40
2023-07-15T02:06:16.268Z,24.30
2023-07-15T02:08:45.862Z,24.30
2023-07-15T02:11:12.718Z,24.30
2023-07-15T02:13:39.516Z,24.30
2023-07-15T02:16:06.388Z,24.20
2023-07-15T02:18:33.172Z,24.20
2023-07-15T02:21:00.015Z,24.20
2023-07-15T02:23:26.787Z,24.20
2023-07-15T02:25:53.583Z,24.10
2023-07-15T02:28:22.029Z,24.10
2023-07-15T02:30:48.832Z,24.10
2023-07-15T02:33:15.652Z,24.10
2023-07-15T02:35:44.334Z,24.10
2023-07-15T02:38:11.066Z,24.00
2023-07-15T02:40:37.831Z,24.00
2023-07-15T02:43:04.612Z,24.00
2023-07-15T02:45:32.906Z,23.90
2023-07-15T02:47:59.752Z,23.90
2023-07-15T02:50:28.051Z,23.90
2023-07-15T02:52:56.044Z,23.90
2023-07-15T02:55:22.865Z,23.80
2023-07-15T02:57:49.635Z,23.80
2023-07-15T03:00:17.452Z,23.80
2023-07-15T03:02:53.551Z,23.70
2023-07-15T03:05:20.357Z,23.80
2023-07-15T03:07:48.373Z,23.70
2023-07-15T03:10:16.226Z,23.70
2023-07-15T03:12:45.909Z,23.70
2023-07-15T03:15:16.504Z,23.60
2023-07-15T03:17:43.728Z,23.60
2023-07-15T03:20:21.240Z,23.60
2023-07-15T03:22:50.156Z,23.60
2023-07-15T03:25:18.683Z,23.50
2023-07-15T03:27:46.422Z,23.50
2023-07-15T03:30:13.214Z,23.40
2023-07-15T03:32:41.202Z,23.40
2023-07-15T03:35:13.199Z,23.40
2023-07-15T03:37:45.169Z,23.30
2023-07-15T03:40:13.527Z,23.40
2023-07-15T03:42:41.502Z,23.30
2023-07-15T03:45:09.316Z,23.30
2023-07-15T03:47:36.329Z,23.30
2023-07-15T03:50:07.608Z,23.30
2023-07-15T03:52:34.703Z,23.30
2023-07-15T03:55:01.499Z,23.20
2023-07-15T03:57:28.246Z,23.20
2023-07-15T03:59:55.233Z,23.20
2023-07-15T04:02:22.448Z,23.20
2023-07-15T04:04:49.278Z,23.10
2023-07-15T04:07:17.461Z,23.10
2023-07-15T04:09:44.234Z,23.10
2023-07-15T04:12:11.047Z,23.10
2023-07-15T04:14:38.016Z,23.10
2023-07-15T04:17:04.988Z,23.00
2023-07-15T04:19:31.792Z,23.00
2023-07-15T04:21:58.635Z,23.00
2023-07-15T04:24:25.428Z,23.00
2023-07-15T04:26:53.013Z,23.00
2023-07-15T04:29:19.929Z,23.00
2023-07-15T04:31:48.664Z,23.00
2023-07-15T04:34:15.549Z,22.90
2023-07-15T04:36:43.967Z,22.90
2023-07-15T04:39:10.726Z,22.90
2023-07-15T04:41:37.485Z,22.90
2023-07-15T04:44:04.370Z,22.90
2023-07-15T04:46:32.109Z,22.90
2023-07-15T04:48:59.151Z,22.90
2023-07-15T04:51:26.847Z,22.80
2023-07-15T04:53:53.674Z,22.80
2023-07-15T04:56:20.476Z,22.80
2023-07-15T04:58:49.090Z,22.80
2023-07-15T05:01:16.117Z,22.80
2023-07-15T05:03:43.295Z,22.80
2023-07-15T05:06:10.363Z,22.80
2023-07-15T05:08:38.544Z,22.80
2023-07-15T05:11:05.523Z,22.80
2023-07-15T05:13:32.442Z,22.90
2023-07-15T05:15:59.377Z,22.80
2023-07-15T05:18:26.260Z,22.90
2023-07-15T05:20:53.092Z,22.90
2023-07-15T05:23:20.004Z,22.90
2023-07-15T05:25:46.860Z,22.90
2023-07-15T05:28:13.691Z,22.90
2023-07-15T05:30:40.486Z,23.00
2023-07-15T05:33:07.304Z,23.00
2023-07-15T05:35:34.129Z,23.00
2023-07-15T05:38:01.242Z,23.00
2023-07-15T05:40:28.029Z,23.10
2023-07-15T05:42:54.842Z,23.10
2023-07-15T05:45:22.714Z,23.10
2023-07-15T05:47:49.649Z,23.10
2023-07-15T05:50:16.669Z,23.20
2023-07-15T05:52:43.534Z,23.20
2023-07-15T05:55:10.361Z,23.20
2023-07-15T05:57:37.319Z,23.30
2023-07-15T06:00:05.118Z,23.30
2023-07-15T06:02:37.609Z,23.30
2023-07-15T06:05:05.374Z,23.30
2023-07-15T06:07:32.259Z,23.40
2023-07-15T06:09:59.183Z,23.40
2023-07-15T06:12:26.224Z,23.40
2023-07-15T06:14:53.844Z,23.50
2023-07-15T06:17:21.923Z,23.50
2023-07-15T06:19:48.831Z,23.50
2023-07-15T06:22:16.527Z,23.60
2023-07-15T06:24:43.439Z,23.60
2023-07-15T06:27:10.208Z,23.60
2023-07-15T06:29:37.369Z,23.70
2023-07-15T06:32:04.555Z,23.70
2023-07-15T06:34:32.539Z,23.80
2023-07-15T06:36:59.824Z,23.80
2023-07-15T06:39:26.740Z,23.80
2023-07-15T06:41:53.931Z,23.90
2023-07-15T06:44:21.333Z,23.90
2023-07-15T06:46:48.377Z,24.00
2023-07-15T06:49:15.378Z,24.00
2023-07-15T06:51:42.396Z,24.10
2023-07-15T06:54:09.353Z,24.10
2023-07-15T06:56:36.219Z,24.10
2023-07-15T06:59:03.892Z,24.20
2023-07-15T07:01:30.899Z,24.20
2023-07-15T07:03:57.681Z,24.30
2023-07-15T07:06:26.816Z,24.30
2023-07-15T07:08:55.573Z,24.40
2023-07-15T07:11:22.652Z,24.40
2023-07-15T07:13:49.666Z,24.50
2023-07-15T07:16:17.287Z,24.50
2023-07-15T07:18:45.929Z,24.60
2023-07-15T07:21:14.257Z,24.70
2023-07-15T07:23:41.205Z,24.70
2023-07-15T07:26:08.231Z,24.70
2023-07-15T07:28:40.807Z,24.80
2023-07-15T07:31:07.986Z,24.80
2023-07-15T07:33:34.794Z,24.80
2023-07-15T07:36:01.638Z,24.90
2023-07-15T07:38:28.456Z,24.90
2023-07-15T07:40:55.238Z,25.00
2023-07-15T07:43:22.036Z,25.00
2023-07-15T07:45:48.840Z,25.10
2023-07-15T07:48:15.602Z,25.10
2023-07-15T07:50:42.764Z,25.20
2023-07-15T07:53:10.693Z,25.30
2023-07-15T07:55:37.506Z,25.40
2023-07-15T07:58:04.311Z,25.40
2023-07-15T08:00:31.128Z,25.50
2023-07-15T08:02:57.971Z,25.50
2023-07-15T08:05:24.887Z,25.60
2023-07-15T08:07:51.727Z,25.60
2023-07-15T08:10:18.472Z,25.60
2023-07-15T08:12:45.224Z,25.70
2023-07-15T08:15:12.173Z,25.80
2023-07-15T08:17:39.073Z,25.90
2023-07-15T08:20:06.750Z,26.00
2023-07-15T08:22:33.756Z,26.10
2023-07-15T08:25:00.674Z,26.10
2023-07-15T08:27:27.412Z,26.20
2023-07-15T08:29:54.208Z,26.30
2023-07-15T08:32:21.012Z,26.40
2023-07-15T08:35:01.515Z,26.50
2023-07-15T08:37:28.462Z,26.60
2023-07-15T08:39:55.437Z,26.70
2023-07-15T08:42:22.522Z,26.80
2023-07-15T08:44:50.146Z,27.00
2023-07-15T08:47:20.803Z,27.10
2023-07-15T08:49:52.593Z,27.30
2023-07-15T08:52:21.028Z,27.40
2023-07-15T08:54:52.564Z,27.40
2023-07-15T08:57:20.790Z,27.50
2023-07-15T08:59:54.114Z,27.50
2023-07-15T09:02:21.300Z,27.60
2023-07-15T09:04:48.171Z,27.60
2023-07-15T09:07:15.142Z,27.60
2023-07-15T09:09:43.342Z,27.60
2023-07-15T09:12:12.422Z,27.60
2023-07-15T09:14:54.019Z,27.60
2023-07-15T09:17:22.436Z,27.60
2023-07-15T09:19:50.255Z,27.50
2023-07-15T09:22:19.267Z,27.50
2023-07-15T09:24:46.100Z,27.50
2023-07-15T09:27:13.042Z,27.40
2023-07-15T09:29:39.975Z,27.30
2023-07-15T09:32:09.191Z,27.30
2023-07-15T09:34:44.373Z,27.30
2023-07-15T09:37:12.655Z,27.30
2023-07-15T09:39:39.510Z,27.20
2023-07-15T09:42:08.323Z,27.20
2023-07-15T09:44:39.166Z,27.20
2023-07-15T09:47:06.777Z,27.10
2023-07-15T09:49:34.142Z,27.00
2023-07-15T09:52:02.621Z,27.00
2023-07-15T09:54:32.530Z,27.00
2023-07-15T09:57:13.123Z,27.00
2023-07-15T09:59:48.200Z,27.00
2023-07-15T10:02:39.119Z,27.00
2023-07-15T10:05:06.676Z,27.00
2023-07-15T10:07:34.253Z,27.00
2023-07-15T10:10:01.752Z,27.00
2023-07-15T10:12:29.607Z,27.00
2023-07-15T10:14:56.757Z,27.10
2023-07-15T10:17:23.821Z,27.10
2023-07-15T10:19:52.177Z,27.10
2023-07-15T10:22:21.137Z,27.10
2023-07-15T10:24:55.332Z,27.10
2023-07-15T10:27:22.814Z,27.10
2023-07-15T10:30:16.816Z,27.10
2023-07-15T10:33:09.607Z,27.10
2023-07-15T10:35:47.874Z,27.10
2023-07-15T10:38:28.833Z,27.10
2023-07-15T10:41:06.494Z,27.10
2023-07-15T10:43:36.659Z,27.00
2023-07-15T10:46:07.731Z,27.00
2023-07-15T10:48:34.774Z,27.00
2023-07-15T10:51:08.363Z,27.00
2023-07-15T10:53:36.088Z,27.00
2023-07-15T10:56:08.184Z,27.00
2023-07-15T10:58:36.391Z,27.00
2023-07-15T11:01:08.660Z,27.00
2023-07-15T11:03:44.612Z,27.00
2023-07-15T11:06:12.622Z,27.00
2023-07-15T11:08:41.451Z,27.00
2023-07-15T11:11:13.631Z,27.00
2023-07-15T11:13:42.789Z,27.10
2023-07-15T11:16:10.060Z,27.10
2023-07-15T11:18:37.064Z,27.00
2023-07-15T11:21:03.930Z,27.10
2023-07-15T11:23:32.232Z,27.10
2023-07-15T11:26:07.310Z,27.00
2023-07-15T11:28:34.190Z,27.00
2023-07-15T11:31:01.060Z,27.00
2023-07-15T11:33:27.908Z,27.00
2023-07-15T11:35:54.669Z,26.90
2023-07-15T11:38:33.610Z,26.90
2023-07-15T11:41:00.931Z,27.00
2023-07-15T11:43:29.264Z,26.90
2023-07-15T11:46:00.911Z,26.90
2023-07-15T11:48:34.936Z,26.90
2023-07-15T11:51:10.906Z,26.90
2023-07-15T11:53:39.776Z,26.90
2023-07-15T11:56:07.530Z,26.90
2023-07-15T11:58:54.072Z,27.00
2023-07-15T12:01:25.239Z,27.00
2023-07-15T12:03:53.208Z,27.00
2023-07-15T12:06:28.656Z,27.00
2023-07-15T12:09:11.425Z,27.00
2023-07-15T12:11:38.761Z,27.10
2023-07-15T12:14:07.099Z,27.20
2023-07-15T12:16:35.617Z,27.20
2023-07-15T12:19:03.421Z,27.30
2023-07-15T12:21:30.622Z,27.30
2023-07-15T12:23:57.790Z,27.40
2023-07-15T12:26:25.150Z,27.60
2023-07-15T12:28:52.711Z,27.70
2023-07-15T12:31:19.990Z,27.90
2023-07-15T12:33:47.136Z,28.00
2023-07-15T12:36:15.732Z,28.20
2023-07-15T12:38:42.855Z,28.20
2023-07-15T12:41:10.136Z,28.30
2023-07-15T12:43:38.417Z,28.30
2023-07-15T12:46:05.661Z,28.40
2023-07-15T12:48:32.510Z,28.50
2023-07-15T12:50:59.639Z,28.50
2023-07-15T12:53:26.951Z,28.60
2023-07-15T12:55:57.170Z,28.70
2023-07-15T12:58:24.585Z,28.80
2023-07-15T13:00:51.506Z,28.90
2023-07-15T13:03:19.008Z,29.00
2023-07-15T13:05:46.269Z,29.10
2023-07-15T13:08:16.381Z,29.10
2023-07-15T13:10:46.880Z,29.20
2023-07-15T13:13:13.999Z,29.20
2023-07-15T13:15:45.544Z,29.20
2023-07-15T13:18:13.332Z,29.30
2023-07-15T13:20:40.442Z,29.40
2023-07-15T13:23:07.391Z,29.40
2023-07-15T13:25:35.867Z,29.40
2023-07-15T13:28:02.647Z,29.40
2023-07-15T13:30:29.543Z,29.30
2023-07-15T13:32:56.425Z,29.40
2023-07-15T13:35:23.298Z,29.40
2023-07-15T13:37:50.070Z,29.50
2023-07-15T13:40:17.020Z,29.60
2023-07-15T13:42:44.117Z,29.70
2023-07-15T13:45:10.888Z,29.90
2023-07-15T13:47:37.770Z,30.10
2023-07-15T13:50:05.003Z,30.20
2023-07-15T13:52:32.928Z,30.50
2023-07-15T13:54:59.792Z,30.60
2023-07-15T13:57:26.646Z,30.80
2023-07-15T13:59:53.538Z,31.00
2023-07-15T14:02:20.588Z,31.10
2023-07-15T14:04:47.407Z,31.30
2023-07-15T14:07:15.906Z,31.30
2023-07-15T14:09:42.751Z,31.30
2023-07-15T14:12:09.588Z,31.20
2023-07-15T14:14:36.418Z,31.10
2023-07-15T14:17:03.976Z,31.10
2023-07-15T14:19:30.946Z,31.10
2023-07-15T14:22:13.525Z,31.10
2023-07-15T14:24:41.142Z,31.10
2023-07-15T14:27:08.343Z,31.20
2023-07-15T14:29:35.115Z,31.30
2023-07-15T14:32:04.120Z,31.50
2023-07-15T14:34:31.861Z,31.60
2023-07-15T14:36:59.078Z,31.70
2023-07-15T14:39:26.012Z,31.70
2023-07-15T14:41:52.801Z,31.80
2023-07-15T14:44:19.698Z,31.90
2023-07-15T14:46:47.740Z,31.90
2023-07-15T14:49:14.761Z,32.00
2023-07-15T14:51:41.659Z,32.00
2023-07-15T14:54:08.823Z,32.10
2023-07-15T14:56:35.760Z,32.10
2023-07-15T14:59:02.710Z,32.20
2023-07-15T15:01:31.130Z,32.30
2023-07-15T15:03:58.447Z,32.40
2023-07-15T15:06:25.630Z,32.50
2023-07-15T15:08:52.626Z,32.40
2023-07-15T15:11:20.092Z,32.40
2023-07-15T15:13:50.621Z,32.40
2023-07-15T15:16:17.754Z,32.40
2023-07-15T15:18:46.514Z,32.30
2023-07-15T15:21:14.480Z,32.30
2023-07-15T15:23:41.879Z,32.30
2023-07-15T15:26:08.711Z,32.10
2023-07-15T15:28:36.333Z,32.10
2023-07-15T15:31:03.302Z,32.10
2023-07-15T15:33:30.241Z,32.10
2023-07-15T15:35:57.245Z,32.00
2023-07-15T15:38:24.005Z,31.90
2023-07-15T15:40:52.381Z,31.80
2023-07-15T15:43:22.558Z,31.70
2023-07-15T15:45:49.350Z,31.60
2023-07-15T15:48:16.261Z,31.50
2023-07-15T15:50:43.028Z,31.40
2023-07-15T15:53:09.884Z,31.30
2023-07-15T15:55:36.847Z,31.30
2023-07-15T15:58:03.938Z,31.10
2023-07-15T16:00:30.814Z,31.00
2023-07-15T16:02:57.766Z,30.90
2023-07-15T16:05:24.539Z,30.90
2023-07-15T16:07:51.338Z,30.90
2023-07-15T16:10:18.164Z,30.90
2023-07-15T16:12:45.009Z,30.90
2023-07-15T16:15:11.945Z,30.90
2023-07-15T16:17:38.904Z,30.90
2023-07-15T16:20:08.018Z,30.80
2023-07-15T16:22:35.512Z,30.70
2023-07-15T16:25:02.906Z,30.60
2023-07-15T16:27:30.575Z,30.60
2023-07-15T16:29:57.453Z,30.50
2023-07-15T16:32:25.505Z,30.40
2023-07-15T16:34:55.474Z,30.30
2023-07-15T16:37:24.706Z,30.20
2023-07-15T16:39:52.179Z,30.10
2023-07-15T16:42:19.229Z,29.90
2023-07-15T16:44:46.639Z,29.80
2023-07-15T16:47:13.595Z,29.70
2023-07-15T16:49:42.100Z,29.60
2023-07-15T16:52:09.388Z,29.50
2023-07-15T16:54:36.276Z,29.30
2023-07-15T16:57:03.460Z,29.20
2023-07-15T16:59:30.398Z,29.10
2023-07-15T17:01:57.354Z,29.10
2023-07-15T17:04:25.168Z,29.10
2023-07-15T17:06:52.287Z,29.00
2023-07-15T17:09:19.367Z,28.90
2023-07-15T17:11:46.125Z,28.90
2023-07-15T17:14:13.020Z,28.90
2023-07-15T17:16:40.101Z,28.90
2023-07-15T17:19:06.928Z,28.80
2023-07-15T17:21:34.574Z,28.70
2023-07-15T17:24:01.503Z,28.70
2023-07-15T17:26:28.333Z,28.70
2023-07-15T17:28:55.145Z,28.60
2023-07-15T17:31:22.009Z,28.60
2023-07-15T17:33:48.917Z,28.50
2023-07-15T17:36:16.127Z,28.40
2023-07-15T17:38:43.285Z,28.40
2023-07-15T17:41:10.129Z,28.30
2023-07-15T17:43:36.940Z,28.30
2023-07-15T17:46:03.933Z,28.20
2023-07-15T17:48:30.858Z,28.20
2023-07-15T17:50:57.838Z,28.10
2023-07-15T17:53:24.782Z,28.00
2023-07-15T17:55:52.251Z,28.00
2023-07-15T17:58:19.592Z,28.00
2023-07-15T18:00:46.738Z,28.00
2023-07-15T18:03:13.621Z,28.00
2023-07-15T18:05:43.258Z,27.90
2023-07-15T18:08:10.644Z,27.90
2023-07-15T18:10:38.215Z,27.90
2023-07-15T18:13:05.975Z,27.90
2023-07-15T18:15:34.068Z,27.80
2023-07-15T18:18:01.018Z,27.80
2023-07-15T18:20:28.037Z,27.70
2023-07-15T18:22:55.055Z,27.70
2023-07-15T18:25:22.862Z,27.70
2023-07-15T18:27:49.936Z,27.60
2023-07-15T18:30:16.834Z,27.60
2023-07-15T18:32:50.532Z,27.60
2023-07-15T18:35:18.323Z,27.50
2023-07-15T18:37:45.153Z,27.50
2023-07-15T18:40:12.334Z,27.40
2023-07-15T18:42:39.290Z,27.40
2023-07-15T18:45:07.106Z,27.40
2023-07-15T18:47:34.482Z,27.30
2023-07-15T18:50:01.669Z,27.30
2023-07-15T18:52:28.709Z,27.30
2023-07-15T18:54:55.641Z,27.20
2023-07-15T18:57:23.670Z,27.20
2023-07-15T18:59:51.596Z,27.20
2023-07-15T19:02:18.670Z,27.20
2023-07-15T19:04:46.599Z,27.10
2023-07-15T19:07:13.530Z,27.10
2023-07-15T19:09:40.688Z,27.10
2023-07-15T19:12:08.358Z,27.10
2023-07-15T19:14:35.228Z,27.10
2023-07-15T19:17:02.261Z,27.10
2023-07-15T19:19:29.185Z,27.10
2023-07-15T19:21:57.070Z,27.10
2023-07-15T19:24:24.118Z,27.10
2023-07-15T19:26:51.269Z,27.10
2023-07-15T19:29:18.183Z,27.10
2023-07-15T19:31:45.166Z,27.10
2023-07-15T19:34:12.095Z,27.10
2023-07-15T19:36:38.941Z,27.10
2023-07-15T19:39:08.437Z,27.10
2023-07-15T19:41:35.678Z,27.10
2023-07-15T19:44:02.853Z,27.10
2023-07-15T19:46:30.057Z,27.10
2023-07-15T19:48:57.063Z,27.10
2023-07-15T19:51:35.627Z,27.00
2023-07-15T19:54:10.909Z,27.00
2023-07-15T19:56:37.845Z,27.00
2023-07-15T19:59:06.903Z,27.00
2023-07-15T20:01:34.610Z,27.00
2023-07-15T20:04:01.844Z,27.00
2023-07-15T20:06:28.955Z,27.00
2023-07-15T20:08:56.074Z,26.90
2023-07-15T20:11:23.010Z,27.00
2023-07-15T20:13:49.864Z,26.90
2023-07-15T20:16:17.111Z,26.90
2023-07-15T20:18:44.141Z,26.90
2023-07-15T20:21:10.979Z,26.90
2023-07-15T20:23:38.079Z,26.90
2023-07-15T20:26:05.112Z,26.90
2023-07-15T20:28:32.034Z,26.90
2023-07-15T20:31:03.214Z,26.80
2023-07-15T20:33:30.660Z,26.80
2023-07-15T20:35:57.592Z,26.80
2023-07-15T20:38:24.644Z,26.80
2023-07-15T20:40:57.498Z,26.80
2023-07-15T20:43:25.491Z,26.70
2023-07-15T20:45:52.706Z,26.70
2023-07-15T20:48:19.712Z,26.70
2023-07-15T20:50:46.722Z,26.70
2023-07-15T20:53:13.688Z,26.70
2023-07-15T20:55:41.655Z,26.70
2023-07-15T20:58:08.907Z,26.70
2023-07-15T21:00:35.839Z,26.60
2023-07-15T21:03:02.779Z,26.60
2023-07-15T21:05:29.865Z,26.60
2023-07-15T21:07:56.718Z,26.60
2023-07-15T21:10:23.778Z,26.60
2023-07-15T21:12:50.715Z,26.60
2023-07-15T21:15:17.659Z,26.60
2023-07-15T21:17:44.673Z,26.60
2023-07-15T21:20:13.905Z,26.60
2023-07-15T21:22:42.576Z,26.50
2023-07-15T21:25:09.733Z,26.50
2023-07-15T21:27:36.649Z,26.50
2023-07-15T21:30:05.162Z,26.50
2023-07-15T21:32:32.151Z,26.50
2023-07-15T21:34:59.173Z,26.50
2023-07-15T21:37:26.146Z,26.50
2023-07-15T21:39:53.025Z,26.50
2023-07-15T21:42:19.882Z,26.40
2023-07-15T21:44:46.931Z,26.40
2023-07-15T21:47:13.872Z,26.40
2023-07-15T21:49:40.734Z,26.40
2023-07-15T21:52:07.796Z,26.40
2023-07-15T21:54:34.723Z,26.40
2023-07-15T21:57:01.572Z,26.40
2023-07-15T21:59:28.512Z,26.40
2023-07-15T22:01:55.363Z,26.30
2023-07-15T22:04:22.213Z,26.30
2023-07-15T22:06:49.153Z,26.30
2023-07-15T22:09:15.994Z,26.30
2023-07-15T22:11:42.897Z,26.30
2023-07-15T22:14:09.986Z,26.30
2023-07-15T22:16:37.093Z,26.30
2023-07-15T22:19:05.554Z,26.30
2023-07-15T22:21:35.550Z,26.30
2023-07-15T22:24:02.784Z,26.20
2023-07-15T22:26:30.249Z,26.20
2023-07-15T22:28:57.106Z,26.20
2023-07-15T22:31:24.085Z,26.20
2023-07-15T22:33:51.058Z,26.20
2023-07-15T22:36:18.071Z,26.20
2023-07-15T22:38:45.973Z,26.20
2023-07-15T22:41:12.956Z,26.10
2023-07-15T22:43:39.792Z,26.10
2023-07-15T22:46:06.662Z,26.10
2023-07-15T22:48:33.563Z,26.10
2023-07-15T22:51:00.745Z,26.10
2023-07-15T22:53:27.661Z,26.10
2023-07-15T22:55:54.600Z,26.10
2023-07-15T22:58:21.937Z,26.10
2023-07-15T23:00:49.019Z,26.10
2023-07-15T23:03:16.047Z,26.00
2023-07-15T23:05:43.047Z,26.00
2023-07-15T23:08:10.057Z,26.00
2023-07-15T23:10:37.012Z,26.00
2023-07-15T23:13:04.137Z,26.00
2023-07-15T23:15:31.100Z,25.90
2023-07-15T23:17:58.112Z,25.90
2023-07-15T23:20:25.205Z,25.90
2023-07-15T23:22:59.764Z,25.90
2023-07-15T23:25:37.758Z,25.90
2023-07-15T23:28:04.807Z,25.90
2023-07-15T23:30:33.922Z,25.80
2023-07-15T23:33:01.043Z,25.90
2023-07-15T23:35:27.986Z,25.80
2023-07-15T23:37:55.212Z,25.80
2023-07-15T23:40:22.200Z,25.80
2023-07-15T23:42:49.133Z,25.80
2023-07-15T23:45:16.075Z,25.80
2023-07-15T23:47:42.934Z,25.70
2023-07-15T23:50:10.393Z,25.70
2023-07-15T23:52:37.299Z,25.70
2023-07-15T23:55:04.655Z,25.70
2023-07-15T23:57:31.583Z,25.70
2023-07-15T23:59:58.442Z,25.70
